Time;durP1;ratioP1;P1;durP2;ratioP2;P2;SDS_P1;SDS_P2;PMS_P1;PMS_P2;Temp;Humidity;BMP_temperature;BMP_pressure;BME280_temperature;BME280_humidity;BME280_pressure;Samples;Min_cycle;Max_cycle;Signal;HPM_P1;HPM_P2
2022/12/03 00:01:23;;;;;;;10.23;4.80;;;;;;;0.36;67.98;101437.33;1752536;82;21579;-45
2022/12/03 00:03:50;;;;;;;10.23;4.10;;;;;;;0.37;68.08;101438.70;1752532;82;21888;-39
2022/12/03 00:06:16;;;;;;;8.80;4.17;;;;;;;0.39;68.06;101437.50;1752376;82;21111;-45
2022/12/03 00:08:43;;;;;;;7.53;3.17;;;;;;;0.41;68.11;101434.64;1752657;82;21029;-40
2022/12/03 00:11:09;;;;;;;6.97;4.08;;;;;;;0.42;68.02;101442.44;1752449;82;21100;-39
2022/12/03 00:13:36;;;;;;;6.58;3.60;;;;;;;0.43;68.08;101445.90;1752387;82;21080;-38
2022/12/03 00:16:04;;;;;;;9.50;3.75;;;;;;;0.42;68.09;101444.13;1750360;81;21085;-45
2022/12/03 00:18:30;;;;;;;8.40;4.50;;;;;;;0.38;68.03;101444.34;1750124;82;20985;-46
2022/12/03 00:20:57;;;;;;;10.45;3.90;;;;;;;0.35;68.14;101439.02;1749743;82;21037;-45
2022/12/03 00:23:24;;;;;;;9.65;4.17;;;;;;;0.34;68.20;101442.77;1749858;82;21579;-44
2022/12/03 00:25:52;;;;;;;9.78;4.40;;;;;;;0.34;68.36;101444.94;1740312;80;21088;-45
2022/12/03 00:28:19;;;;;;;10.30;4.10;;;;;;;0.36;68.42;101442.48;1720162;83;21009;-46
2022/12/03 00:30:46;;;;;;;9.83;3.47;;;;;;;0.35;68.28;101448.03;1719873;83;21112;-46
2022/12/03 00:33:12;;;;;;;7.97;4.12;;;;;;;0.32;68.40;101452.10;1720038;83;21512;-45
2022/12/03 00:35:39;;;;;;;7.62;4.25;;;;;;;0.33;68.63;101451.30;1719933;83;21064;-41
2022/12/03 00:38:05;;;;;;;12.33;4.75;;;;;;;0.31;68.59;101443.48;1719786;83;21013;-39
2022/12/03 00:40:33;;;;;;;7.97;4.75;;;;;;;0.30;68.64;101448.55;1720095;83;21052;-45
2022/12/03 00:43:00;;;;;;;8.88;3.60;;;;;;;0.26;68.60;101455.20;1720012;83;21127;-45
2022/12/03 00:45:27;;;;;;;11.08;3.30;;;;;;;0.24;68.76;101452.94;1719985;83;21100;-39
2022/12/03 00:47:53;;;;;;;7.53;4.28;;;;;;;0.24;68.96;101456.80;1720233;83;21465;-45
2022/12/03 00:50:20;;;;;;;7.80;4.70;;;;;;;0.25;69.04;101458.17;1719930;83;21614;-39
2022/12/03 00:52:48;;;;;;;7.40;4.37;;;;;;;0.23;68.92;101460.15;1720149;83;21560;-38
2022/12/03 00:55:15;;;;;;;11.57;4.75;;;;;;;0.19;68.96;101454.34;1720074;83;21080;-44
2022/12/03 00:57:42;;;;;;;8.43;4.12;;;;;;;0.18;69.17;101456.44;1720016;83;21077;-46
2022/12/03 01:00:10;;;;;;;6.62;3.80;;;;;;;0.15;69.37;101457.13;1719938;83;21119;-40
2022/12/03 01:02:37;;;;;;;6.95;4.17;;;;;;;0.09;69.47;101454.18;1720321;83;21076;-40
2022/12/03 01:05:04;;;;;;;11.43;4.78;;;;;;;0.06;69.64;101447.95;1719952;83;21578;-43
2022/12/03 01:07:31;;;;;;;11.63;4.80;;;;;;;0.08;69.82;101450.23;1720322;83;21065;-39
2022/12/03 01:09:57;;;;;;;11.30;4.12;;;;;;;0.08;70.01;101452.81;1719944;83;21080;-46
2022/12/03 01:12:25;;;;;;;8.63;3.83;;;;;;;0.08;70.13;101452.41;1719966;83;21119;-39
2022/12/03 01:14:51;;;;;;;13.13;4.75;;;;;;;0.08;70.12;101452.81;1721989;82;21124;-45
2022/12/03 01:17:18;;;;;;;7.87;4.40;;;;;;;0.05;70.13;101450.92;1737887;82;21073;-39
2022/12/03 01:19:45;;;;;;;8.48;4.03;;;;;;;-0.01;70.09;101451.44;1737857;82;21014;-46
2022/12/03 01:22:11;;;;;;;11.08;4.10;;;;;;;-0.03;70.26;101449.59;1737922;82;21084;-40
2022/12/03 01:24:38;;;;;;;8.10;4.35;;;;;;;-0.04;70.32;101452.95;1737830;82;21144;-44
2022/12/03 01:27:05;;;;;;;8.58;4.50;;;;;;;-0.06;70.41;101453.24;1738086;82;21100;-44
2022/12/03 01:29:31;;;;;;;8.55;4.67;;;;;;;-0.08;70.57;101455.73;1737860;82;21037;-38
2022/12/03 01:32:16;;;;;;;7.40;4.20;;;;;;;-0.07;70.62;101461.76;1737821;82;21096;-39
2022/12/03 01:34:46;;;;;;;7.90;4.72;;;;;;;-0.09;70.64;101462.96;1737909;82;21081;-45
2022/12/03 01:37:13;;;;;;;10.45;4.72;;;;;;;-0.11;70.62;101473.57;1738137;82;21014;-40
2022/12/03 01:39:40;;;;;;;8.98;4.62;;;;;;;-0.12;70.80;101470.48;1737859;82;21136;-38
2022/12/03 01:42:08;;;;;;;10.40;4.58;;;;;;;-0.14;70.70;101471.19;1737893;82;21092;-39
2022/12/03 01:44:35;;;;;;;10.53;4.83;;;;;;;-0.16;70.77;101473.68;1738178;81;21093;-38
2022/12/03 01:47:04;;;;;;;8.53;4.62;;;;;;;-0.16;70.90;101479.22;1737799;81;21600;-39
2022/12/03 01:49:48;;;;;;;15.32;5.62;;;;;;;-0.19;71.04;101483.77;1737958;82;21636;-44
2022/12/03 01:52:17;;;;;;;9.10;4.78;;;;;;;-0.20;71.12;101487.14;1737449;82;21460;-44
2022/12/03 01:54:53;;;;;;;14.18;4.83;;;;;;;-0.20;71.11;101491.00;1737939;82;21077;-45
2022/12/03 01:57:31;;;;;;;10.30;4.87;;;;;;;-0.22;71.22;101496.85;1711290;82;22638;-45
2022/12/03 01:59:57;;;;;;;9.10;4.33;;;;;;;-0.22;71.32;101506.74;1737028;82;21159;-39
2022/12/03 04:16:39;;;;;;;11.53;6.37;;;;;;;-0.56;76.39;101589.45;1800617;79;27244;-43
2022/12/03 04:19:05;;;;;;;12.30;6.72;;;;;;;-0.57;76.30;101583.82;1760587;81;21310;-44
2022/12/03 04:24:16;;;;;;;12.80;6.12;;;;;;;-0.57;76.40;101586.80;1752718;82;21052;-43
2022/12/03 04:29:28;;;;;;;15.15;6.12;;;;;;;-0.57;76.64;101591.53;1752987;82;21666;-44
2022/12/03 04:37:24;;;;;;;14.73;6.55;;;;;;;-0.60;77.08;101602.89;1753036;82;21096;-44
2022/12/03 04:39:50;;;;;;;13.55;5.87;;;;;;;-0.61;77.34;101601.52;1752682;82;21085;-44
2022/12/03 04:42:17;;;;;;;19.10;6.67;;;;;;;-0.62;77.63;101606.16;1753071;82;21045;-39
2022/12/03 04:44:43;;;;;;;17.10;7.62;;;;;;;-0.64;77.94;101608.64;1752951;82;21068;-44
2022/12/03 04:47:13;;;;;;;17.92;6.78;;;;;;;-0.67;78.23;101612.68;1752792;82;21071;-43
2022/12/03 04:49:45;;;;;;;15.28;6.15;;;;;;;-0.69;78.56;101616.84;1753010;82;21052;-43
2022/12/03 04:52:13;;;;;;;19.05;6.40;;;;;;;-0.70;78.81;101622.74;1753162;82;21548;-44
2022/12/03 04:54:40;;;;;;;16.90;7.35;;;;;;;-0.70;79.08;101626.59;1752966;82;21139;-45
2022/12/03 04:57:06;;;;;;;18.90;7.17;;;;;;;-0.73;79.17;101626.41;1752802;82;21021;-40
2022/12/03 04:59:33;;;;;;;13.95;6.17;;;;;;;-0.74;79.35;101634.92;1752951;82;21057;-39
2022/12/03 05:02:00;;;;;;;12.07;6.20;;;;;;;-0.73;79.56;101639.27;1752768;82;20994;-38
2022/12/03 05:04:26;;;;;;;16.05;7.62;;;;;;;-0.73;79.63;101638.87;1752669;82;21076;-39
2022/12/03 05:06:53;;;;;;;17.57;8.03;;;;;;;-0.73;79.72;101635.41;1752733;82;21109;-45
2022/12/03 05:09:19;;;;;;;27.30;8.38;;;;;;;-0.72;79.89;101641.04;1753002;82;21048;-39
2022/12/03 05:11:46;;;;;;;13.28;7.40;;;;;;;-0.71;80.01;101645.39;1752845;82;21093;-44
2022/12/03 05:14:12;;;;;;;18.75;8.83;;;;;;;-0.70;79.97;101645.48;1752712;82;21356;-38
2022/12/03 05:16:39;;;;;;;17.10;7.58;;;;;;;-0.70;79.89;101646.77;1753489;82;21080;-39
2022/12/03 05:19:06;;;;;;;16.90;7.50;;;;;;;-0.72;79.78;101649.64;1753523;82;21080;-38
2022/12/03 05:21:33;;;;;;;20.32;7.10;;;;;;;-0.72;79.72;101650.03;1753587;82;21119;-44
2022/12/03 05:23:59;;;;;;;12.37;6.40;;;;;;;-0.71;79.73;101660.41;1753386;82;21559;-45
2022/12/03 05:26:26;;;;;;;16.23;7.05;;;;;;;-0.71;79.71;101657.84;1753477;82;21099;-39
2022/12/03 05:28:52;;;;;;;19.07;8.03;;;;;;;-0.72;79.68;101659.92;1753197;82;21033;-44
2022/12/03 05:31:19;;;;;;;11.68;7.05;;;;;;;-0.69;79.80;101668.25;1753015;82;21571;-39
2022/12/03 05:33:45;;;;;;;15.85;7.10;;;;;;;-0.67;79.75;101665.38;1753013;82;21005;-45
2022/12/03 05:36:12;;;;;;;17.90;7.90;;;;;;;-0.65;79.89;101680.09;1752947;82;21052;-39
2022/12/03 05:38:38;;;;;;;21.15;9.20;;;;;;;-0.66;80.22;101677.04;1753125;82;21045;-39
2022/12/03 05:42:52;;;;;;;15.30;7.47;;;;;;;-0.68;80.57;101680.31;1753047;80;21607;-45
2022/12/03 05:43:33;;;;;;;17.25;8.18;;;;;;;-0.68;80.77;101676.45;1748449;82;21084;-46
2022/12/03 05:46:00;;;;;;;16.10;8.00;;;;;;;-0.66;80.83;101685.14;1752943;82;21108;-41
2022/12/03 05:48:28;;;;;;;18.48;9.13;;;;;;;-0.66;80.85;101686.43;1753134;82;21067;-44
2022/12/03 05:50:55;;;;;;;15.60;7.53;;;;;;;-0.67;80.79;101686.83;1753059;82;21348;-44
2022/12/03 05:53:22;;;;;;;17.17;8.30;;;;;;;-0.67;80.50;101686.83;1752969;82;21002;-39
2022/12/03 05:55:48;;;;;;;19.77;8.68;;;;;;;-0.66;80.17;101689.00;1752982;82;21690;-45
2022/12/03 05:58:15;;;;;;;16.50;7.90;;;;;;;-0.70;79.85;101693.03;1753046;82;21093;-45
2022/12/03 06:00:41;;;;;;;21.15;7.80;;;;;;;-0.74;79.82;101691.06;1752803;82;21064;-38
2022/12/03 06:03:07;;;;;;;18.57;8.78;;;;;;;-0.76;79.80;101691.73;1752914;82;21040;-45
2022/12/03 06:05:34;;;;;;;19.07;9.18;;;;;;;-0.78;79.79;101698.46;1752970;82;21067;-44
2022/12/03 06:08:00;;;;;;;20.12;8.20;;;;;;;-0.82;79.93;101700.81;1753166;82;21099;-46
2022/12/03 06:10:27;;;;;;;20.95;10.45;;;;;;;-0.83;80.10;101703.28;1753040;82;21033;-40
2022/12/03 06:12:54;;;;;;;17.60;9.13;;;;;;;-0.83;80.27;101708.02;1753123;82;21045;-39
2022/12/03 06:15:21;;;;;;;21.77;10.08;;;;;;;-0.83;80.50;101709.70;1752948;81;21069;-43
2022/12/03 06:17:47;;;;;;;30.72;10.82;;;;;;;-0.84;80.77;101712.67;1753361;82;21001;-45
2022/12/03 06:20:16;;;;;;;21.57;8.83;;;;;;;-0.85;80.91;101712.58;1753136;82;21032;-39
2022/12/03 06:22:43;;;;;;;19.90;9.20;;;;;;;-0.88;80.97;101722.23;1753326;82;20985;-40
2022/12/03 06:25:10;;;;;;;21.60;9.53;;;;;;;-0.88;81.19;101722.63;1752942;80;21080;-39
2022/12/03 06:27:36;;;;;;;25.23;10.68;;;;;;;-0.86;81.13;101727.11;1752948;82;21049;-39
2022/12/03 06:30:04;;;;;;;21.73;10.48;;;;;;;-0.86;80.97;101738.67;1725285;82;21567;-45
2022/12/03 06:32:31;;;;;;;27.67;10.40;;;;;;;-0.88;80.98;101731.23;1753273;82;21013;-40
2022/12/03 06:34:58;;;;;;;25.62;10.95;;;;;;;-0.87;80.93;101745.89;1753056;82;21088;-39
2022/12/03 06:37:24;;;;;;;27.17;11.05;;;;;;;-0.88;80.64;101740.22;1753408;82;20969;-39
2022/12/03 06:39:51;;;;;;;20.65;10.10;;;;;;;-0.92;80.55;101739.94;1752814;82;21088;-45
2022/12/03 06:42:17;;;;;;;24.95;11.50;;;;;;;-0.95;80.55;101743.56;1753057;82;21497;-45
2022/12/03 06:44:43;;;;;;;24.75;10.38;;;;;;;-0.98;80.77;101753.25;1749877;80;20993;-39
2022/12/03 06:47:10;;;;;;;22.42;9.70;;;;;;;-1.00;80.99;101753.52;1684476;85;21572;-45
2022/12/03 06:49:36;;;;;;;21.97;10.88;;;;;;;-1.01;81.12;101751.73;1751506;81;21631;-45
2022/12/03 06:52:03;;;;;;;25.45;11.53;;;;;;;-1.03;80.95;101761.03;1751370;82;21121;-44
2022/12/03 06:54:30;;;;;;;26.05;12.00;;;;;;;-1.03;80.70;101760.14;1751532;82;21057;-44
2022/12/03 06:56:56;;;;;;;27.62;13.53;;;;;;;-1.11;80.48;101763.04;1751273;82;21092;-40
2022/12/03 06:59:23;;;;;;;25.02;11.40;;;;;;;-1.15;80.49;101757.60;1723848;82;21128;-39
2022/12/03 07:01:49;;;;;;;27.15;11.88;;;;;;;-1.14;80.64;101764.12;1751410;82;21073;-45
2022/12/03 07:04:16;;;;;;;25.92;10.82;;;;;;;-1.12;80.36;101761.66;1751580;82;21116;-45
2022/12/03 07:06:42;;;;;;;21.87;11.68;;;;;;;-1.14;80.36;101763.23;1684675;85;21109;-38
2022/12/03 07:09:09;;;;;;;26.37;11.88;;;;;;;-1.18;80.13;101769.82;1750872;82;21042;-45
2022/12/03 07:11:39;;;;;;;21.77;11.30;;;;;;;-1.22;80.15;101770.77;1751352;82;21081;-40
2022/12/03 07:14:05;;;;;;;23.07;11.65;;;;;;;-1.26;80.30;101777.78;1751149;82;21069;-46
2022/12/03 07:16:35;;;;;;;25.72;11.20;;;;;;;-1.27;80.30;101776.90;1682629;85;21050;-39
2022/12/03 07:19:02;;;;;;;24.98;11.73;;;;;;;-1.31;79.71;101781.70;1680215;85;21655;-45
2022/12/03 07:21:28;;;;;;;20.92;10.38;;;;;;;-1.36;79.49;101783.54;1681029;85;21087;-45
2022/12/03 07:23:55;;;;;;;25.85;11.15;;;;;;;-1.41;79.32;101782.70;1670618;86;21073;-39
2022/12/03 07:26:21;;;;;;;22.00;10.50;;;;;;;-1.44;79.46;101788.92;1689273;84;21021;-39
2022/12/03 07:28:48;;;;;;;28.12;10.82;;;;;;;-1.46;79.52;101793.92;1674845;84;21517;-39
2022/12/03 07:31:14;;;;;;;27.20;11.18;;;;;;;-1.51;79.54;101792.70;1686388;84;21559;-40
2022/12/03 07:33:41;;;;;;;20.52;9.78;;;;;;;-1.49;79.82;101796.69;1678124;84;21541;-45
2022/12/03 07:36:08;;;;;;;21.70;10.20;;;;;;;-1.46;80.06;101800.34;1673418;84;21179;-39
2022/12/03 07:38:35;;;;;;;22.70;10.25;;;;;;;-1.46;79.65;101795.61;1681231;84;21006;-38
2022/12/03 07:41:01;;;;;;;22.10;10.85;;;;;;;-1.49;79.60;101795.01;1650835;85;22770;-46
2022/12/03 07:43:28;;;;;;;21.45;10.00;;;;;;;-1.46;79.72;101796.89;1678330;84;21107;-45
2022/12/03 07:45:54;;;;;;;20.20;9.68;;;;;;;-1.47;79.42;101788.69;1687014;84;21126;-39
2022/12/03 07:48:21;;;;;;;24.47;11.48;;;;;;;-1.49;79.17;101802.70;1732650;82;21069;-39
2022/12/03 07:50:47;;;;;;;17.67;9.98;;;;;;;-1.52;79.22;101801.19;1721175;82;21049;-40
2022/12/03 07:53:15;;;;;;;18.48;9.83;;;;;;;-1.49;79.22;101802.70;1726495;82;20986;-41
2022/12/03 07:55:41;;;;;;;17.27;8.50;;;;;;;-1.45;78.89;101803.80;1728499;82;21085;-39
2022/12/03 07:58:08;;;;;;;20.23;9.83;;;;;;;-1.41;78.75;101804.53;1730246;82;22235;-39
2022/12/03 08:00:34;;;;;;;20.40;10.50;;;;;;;-1.41;78.05;101809.27;1718009;82;21102;-38
2022/12/03 10:17:51;;;;;;;19.40;8.23;;;;;;;-0.97;73.55;101815.41;1784810;78;22355;-39
2022/12/03 10:20:20;;;;;;;11.05;6.85;;;;;;;-0.92;72.94;101820.48;1783218;80;21855;-45
2022/12/03 10:22:47;;;;;;;9.95;5.35;;;;;;;-0.87;72.61;101812.70;1768402;80;21014;-40
2022/12/03 10:25:20;;;;;;;14.90;7.58;;;;;;;-0.84;72.37;101810.33;1751204;80;21100;-39
2022/12/03 10:28:01;;;;;;;;;;;;;;;-0.83;72.18;101809.94;1756243;80;21053;-38
2022/12/03 10:30:28;;;;;;;9.95;5.47;;;;;;;-0.81;72.23;101815.70;1778985;80;20140;-45
2022/12/03 10:32:56;;;;;;;11.65;6.17;;;;;;;-0.79;72.12;101807.20;1777203;80;21710;-45
2022/12/03 10:35:35;;;;;;;13.50;6.35;;;;;;;-0.78;71.77;101811.15;1787452;80;21095;-46
2022/12/03 10:38:04;;;;;;;12.63;6.22;;;;;;;-0.75;71.70;101810.09;1769543;81;21529;-45
2022/12/03 10:40:37;;;;;;;10.38;5.62;;;;;;;-0.72;71.44;101810.28;1751650;80;21068;-38
2022/12/03 10:43:19;;;;;;;;;;;;;;;-0.70;71.44;101802.67;1761655;80;21026;-46
2022/12/03 10:46:01;;;;;;;13.50;5.10;;;;;;;-0.68;71.37;101799.84;1790200;80;20464;-38
2022/12/03 10:48:28;;;;;;;11.75;6.37;;;;;;;-0.63;71.64;101808.37;1737933;80;21053;-45
2022/12/03 10:51:21;;;;;;;12.55;6.03;;;;;;;-0.55;71.40;101813.63;1771679;80;21070;-40
2022/12/03 10:53:48;;;;;;;9.48;5.72;;;;;;;-0.54;71.01;101802.55;1761887;80;21012;-39
2022/12/03 10:56:23;;;;;;;10.88;5.95;;;;;;;-0.56;70.97;101805.42;1789888;80;21056;-40
2022/12/03 10:58:50;;;;;;;11.05;5.75;;;;;;;-0.51;71.11;101807.42;1778463;80;21080;-46
2022/12/03 11:01:20;;;;;;;14.10;5.33;;;;;;;-0.48;70.86;101805.05;1752802;80;21582;-45
2022/12/03 11:03:47;;;;;;;11.38;4.65;;;;;;;-0.48;70.97;101808.50;1756225;81;21435;-39
2022/12/03 11:06:18;;;;;;;9.60;4.95;;;;;;;-0.41;71.07;101805.55;1748040;82;21454;-46
2022/12/03 11:08:48;;;;;;;10.53;4.97;;;;;;;-0.40;70.87;101805.19;1767473;80;21095;-39
2022/12/03 11:11:21;;;;;;;9.65;4.65;;;;;;;-0.38;71.01;101807.06;1755181;82;21068;-46
2022/12/03 11:13:53;;;;;;;8.18;5.35;;;;;;;-0.33;70.80;101809.95;1754638;80;21030;-45
2022/12/03 11:16:42;;;;;;;6.40;3.87;;;;;;;-0.33;70.79;101810.84;1754437;81;21093;-44
2022/12/03 11:19:43;;;;;;;10.28;5.00;;;;;;;-0.30;70.64;101810.14;1753709;81;20987;-44
2022/12/03 11:22:18;;;;;;;8.15;4.85;;;;;;;-0.28;70.54;101803.45;1645060;86;21133;-39
2022/12/03 11:24:45;;;;;;;11.25;5.42;;;;;;;-0.28;70.25;101806.91;1656131;86;21015;-42
2022/12/03 11:27:17;;;;;;;8.95;4.70;;;;;;;-0.29;70.27;101805.12;1660836;85;21618;-47
2022/12/03 11:29:51;;;;;;;8.55;4.47;;;;;;;-0.26;70.46;101803.14;1664561;85;21010;-40
2022/12/03 11:32:46;;;;;;;6.80;4.50;;;;;;;-0.22;70.53;101806.43;1659362;86;21198;-40
2022/12/03 11:35:24;;;;;;;10.93;4.72;;;;;;;-0.16;70.42;101808.52;1602578;88;21069;-45
2022/12/03 11:37:51;;;;;;;8.15;4.65;;;;;;;-0.09;70.38;101802.59;1614439;89;21121;-44
2022/12/03 11:40:23;;;;;;;7.78;4.15;;;;;;;-0.07;70.31;101791.99;1630933;88;21124;-40
2022/12/03 11:42:49;;;;;;;9.05;5.03;;;;;;;-0.02;70.23;101802.59;1619143;88;21020;-45
2022/12/03 11:45:31;;;;;;;10.60;5.12;;;;;;;0.02;70.04;101799.84;1635044;87;21024;-38
2022/12/03 11:48:11;;;;;;;9.10;4.12;;;;;;;0.06;69.99;101796.66;1607833;88;21011;-46
2022/12/03 11:50:52;;;;;;;9.40;5.12;;;;;;;0.12;69.93;101797.98;1620871;87;21548;-46
2022/12/03 11:53:23;;;;;;;13.13;8.18;;;;;;;0.20;69.68;101806.20;1618230;88;21837;-40
2022/12/03 11:56:01;;;;;;;8.85;5.62;;;;;;;0.42;69.47;101795.22;1626846;87;21143;-40
2022/12/03 11:58:27;;;;;;;9.50;4.97;;;;;;;0.75;68.87;101787.84;1630703;85;20980;-46
2022/12/03 12:00:54;;;;;;;;;;;;;;;0.98;68.03;101801.77;1717079;84;21630;-39
2022/12/03 12:03:32;;;;;;;8.60;4.53;;;;;;;1.12;67.65;101802.64;1707790;84;20110;-38
2022/12/03 12:06:15;;;;;;;10.43;4.87;;;;;;;1.17;67.20;101808.09;1707458;84;21088;-38
2022/12/03 12:08:57;;;;;;;8.70;4.00;;;;;;;1.11;66.60;101805.13;1707859;84;21041;-44
2022/12/03 12:11:32;;;;;;;11.63;4.17;;;;;;;1.05;66.37;101804.35;1708775;84;21112;-44
2022/12/03 12:14:08;;;;;;;10.48;4.67;;;;;;;0.96;66.28;101808.52;1709347;84;21440;-38
2022/12/03 12:16:44;;;;;;;5.70;3.85;;;;;;;0.94;66.48;101814.39;1721428;81;21067;-43
2022/12/03 12:19:34;;;;;;;7.78;4.08;;;;;;;0.93;66.46;101816.08;1783673;80;20961;-39
2022/12/03 12:22:25;;;;;;;7.03;4.00;;;;;;;0.88;66.37;101816.18;1783607;80;21060;-39
2022/12/03 12:25:04;;;;;;;6.47;4.00;;;;;;;0.86;66.48;101822.02;1780018;80;21035;-46
2022/12/03 12:27:44;;;;;;;6.45;3.67;;;;;;;0.84;66.43;101814.59;1774040;80;21023;-39
2022/12/03 12:30:17;;;;;;;8.48;4.65;;;;;;;0.83;66.23;101821.84;1770582;80;21074;-40
2022/12/03 12:33:17;;;;;;;6.70;3.77;;;;;;;0.78;66.31;101829.27;1737472;81;21042;-40
2022/12/03 12:35:43;;;;;;;9.00;4.20;;;;;;;0.74;66.49;101835.02;1707638;82;21047;-38
2022/12/03 12:38:17;;;;;;;7.25;3.40;;;;;;;0.69;66.53;101841.16;1760074;81;21071;-38
2022/12/03 12:40:47;;;;;;;7.08;4.20;;;;;;;0.68;66.77;101834.22;1760326;81;21110;-40
2022/12/03 12:43:25;;;;;;;10.13;4.05;;;;;;;0.73;66.78;101835.81;1734562;81;21031;-46
2022/12/03 12:45:53;;;;;;;11.05;4.20;;;;;;;0.75;66.56;101841.94;1720897;82;21170;-39
2022/12/03 12:48:24;;;;;;;7.22;4.12;;;;;;;0.75;66.47;101843.23;1692495;84;21043;-44
2022/12/03 12:51:10;;;;;;;9.18;4.35;;;;;;;0.72;65.99;101843.94;1720895;82;21099;-46
2022/12/03 12:53:37;;;;;;;7.10;3.45;;;;;;;0.66;66.05;101848.70;1694579;84;21036;-46
2022/12/03 12:56:25;;;;;;;6.90;4.08;;;;;;;0.60;66.33;101853.46;1691027;84;21190;-39
2022/12/03 12:58:52;;;;;;;6.05;3.52;;;;;;;0.58;66.50;101847.33;1719692;82;21055;-45
2022/12/03 13:01:22;;;;;;;7.05;3.37;;;;;;;0.56;66.76;101855.33;1722804;82;21125;-44
2022/12/03 13:03:50;;;;;;;7.80;4.15;;;;;;;0.53;66.60;101854.75;1768247;80;20997;-46
2022/12/03 13:06:17;;;;;;;8.25;3.95;;;;;;;0.50;66.36;101853.25;1753730;80;21068;-40
2022/12/03 13:08:46;;;;;;;5.83;3.70;;;;;;;0.46;66.55;101856.80;1751310;82;21487;-39
2022/12/03 13:11:35;;;;;;;7.90;4.53;;;;;;;0.45;66.85;101859.78;1751392;82;21075;-40
2022/12/03 13:14:14;;;;;;;7.05;3.80;;;;;;;0.44;66.89;101858.40;1751843;82;21025;-46
2022/12/03 13:16:40;;;;;;;7.03;3.98;;;;;;;0.44;66.99;101854.53;1764837;80;21131;-40
2022/12/03 13:19:25;;;;;;;7.25;3.60;;;;;;;0.39;66.92;101864.53;1739820;82;21026;-41
2022/12/03 13:21:54;;;;;;;7.58;3.83;;;;;;;0.37;66.96;101869.98;1739454;82;21143;-46
2022/12/03 13:24:42;;;;;;;11.93;4.12;;;;;;;0.35;67.15;101876.73;1739457;81;21048;-45
2022/12/03 13:27:24;;;;;;;7.42;4.05;;;;;;;0.32;67.23;101867.50;1739743;82;21100;-47
2022/12/03 13:30:03;;;;;;;5.47;3.58;;;;;;;0.27;67.14;101874.02;1742402;81;20988;-45
2022/12/03 13:32:32;;;;;;;6.20;3.70;;;;;;;0.22;67.02;101879.26;1745995;81;21094;-45
2022/12/03 13:35:08;;;;;;;5.72;3.58;;;;;;;0.17;67.29;101879.34;1762358;81;21470;-40
2022/12/03 13:37:34;;;;;;;6.22;3.60;;;;;;;0.18;67.51;101886.30;1730773;81;21103;-39
2022/12/03 13:40:26;;;;;;;8.93;4.10;;;;;;;0.18;67.63;101891.05;1741047;81;21104;-45
2022/12/03 13:42:53;;;;;;;4.33;2.95;;;;;;;0.17;67.60;101890.92;1770598;81;21072;-39
2022/12/03 13:45:25;;;;;;;7.12;4.05;;;;;;;0.14;67.63;101900.64;1769969;81;21053;-40
2022/12/03 13:48:00;;;;;;;5.67;3.72;;;;;;;0.11;67.76;101895.66;1769959;81;21056;-39
2022/12/03 13:50:42;;;;;;;7.20;3.98;;;;;;;0.09;67.75;101894.28;1770244;81;21033;-40
2022/12/03 13:53:25;;;;;;;6.80;3.77;;;;;;;0.07;67.62;101893.70;1770441;81;21531;-46
2022/12/03 13:56:30;;;;;;;6.15;3.72;;;;;;;0.06;67.74;101895.38;1769280;81;21096;-38
2022/12/03 13:58:59;;;;;;;7.22;3.47;;;;;;;0.07;67.91;101896.27;1770225;81;21036;-38
2022/12/03 16:15:51;;;;;;;12.20;5.12;;;;;;;-1.95;76.03;102022.55;1862034;77;21925;-43
2022/12/03 16:18:18;;;;;;;8.98;5.53;;;;;;;-2.01;76.18;102023.36;1836668;78;21027;-43
2022/12/03 16:20:44;;;;;;;11.15;6.47;;;;;;;-2.05;76.43;102029.02;1831668;78;21575;-42
2022/12/03 16:23:11;;;;;;;9.90;5.60;;;;;;;-2.07;76.66;102030.97;1832255;78;21562;-44
2022/12/03 16:25:37;;;;;;;8.78;5.75;;;;;;;-2.11;76.88;102037.52;1832144;78;21067;-38
2022/12/03 16:28:05;;;;;;;10.72;6.08;;;;;;;-2.14;77.06;102041.14;1832295;78;21032;-45
2022/12/03 16:30:32;;;;;;;10.70;5.10;;;;;;;-2.19;77.25;102038.20;1832125;78;21004;-44
2022/12/03 16:32:58;;;;;;;8.73;5.28;;;;;;;-2.22;77.38;102041.80;1831880;78;21535;-38
2022/12/03 16:35:25;;;;;;;9.65;5.95;;;;;;;-2.26;77.51;102037.22;1832073;78;20980;-39
2022/12/03 16:37:51;;;;;;;9.15;5.72;;;;;;;-2.31;77.66;102035.96;1832174;78;21086;-44
2022/12/03 16:40:18;;;;;;;7.87;4.65;;;;;;;-2.33;77.87;102037.48;1831722;78;21016;-38
2022/12/03 16:42:44;;;;;;;13.03;5.58;;;;;;;-2.36;78.04;102044.95;1832102;78;20980;-45
2022/12/03 16:45:21;;;;;;;11.80;5.62;;;;;;;-2.38;78.13;102043.02;1831644;78;21020;-45
2022/12/03 16:47:39;;;;;;;11.48;5.95;;;;;;;-2.41;78.29;102048.81;1831654;78;20995;-38
2022/12/03 16:50:07;;;;;;;9.25;5.08;;;;;;;-2.45;78.41;102050.62;1831791;78;21099;-38
2022/12/03 16:52:34;;;;;;;9.33;5.70;;;;;;;-2.50;78.56;102048.95;1832183;78;21020;-44
2022/12/03 16:55:01;;;;;;;10.40;5.67;;;;;;;-2.53;78.70;102045.28;1831785;78;21941;-44
2022/12/03 16:57:27;;;;;;;9.23;5.45;;;;;;;-2.59;78.84;102048.63;1831744;78;21036;-39
2022/12/03 16:59:53;;;;;;;9.60;5.42;;;;;;;-2.62;79.02;102049.65;1831954;78;21036;-45
2022/12/03 17:02:20;;;;;;;11.18;5.75;;;;;;;-2.66;79.18;102051.48;1831883;78;21519;-38
2022/12/03 17:04:46;;;;;;;9.30;5.65;;;;;;;-2.72;79.35;102054.05;1832259;78;21047;-38
2022/12/03 17:07:13;;;;;;;9.90;5.17;;;;;;;-2.75;79.54;102060.20;1832587;78;20988;-45
2022/12/03 17:09:40;;;;;;;9.55;5.85;;;;;;;-2.76;79.73;102057.13;1832018;78;21130;-39
2022/12/03 17:12:06;;;;;;;8.60;5.47;;;;;;;-2.79;79.84;102061.09;1832430;78;20996;-38
2022/12/03 17:14:33;;;;;;;10.38;6.15;;;;;;;-2.80;79.98;102067.00;1831925;78;21103;-44
2022/12/03 17:16:59;;;;;;;9.58;6.60;;;;;;;-2.82;80.20;102069.44;1831559;78;21550;-39
2022/12/03 17:19:26;;;;;;;12.37;6.10;;;;;;;-2.83;80.30;102077.02;1831898;78;21071;-38
2022/12/03 17:21:53;;;;;;;10.78;5.90;;;;;;;-2.85;80.35;102078.14;1831523;78;21020;-44
2022/12/03 17:24:20;;;;;;;11.25;5.97;;;;;;;-2.88;80.47;102078.30;1831646;78;21554;-44
2022/12/03 17:26:46;;;;;;;10.93;5.42;;;;;;;-2.91;80.58;102078.03;1831778;78;21545;-44
2022/12/03 17:29:13;;;;;;;10.18;5.20;;;;;;;-2.93;80.66;102080.47;1831674;78;21020;-38
2022/12/03 17:31:39;;;;;;;10.60;5.87;;;;;;;-2.97;80.66;102079.70;1831579;78;21028;-39
2022/12/03 17:34:06;;;;;;;14.15;5.60;;;;;;;-3.01;80.68;102080.24;1831448;78;21082;-38
2022/12/03 17:36:32;;;;;;;9.20;5.83;;;;;;;-3.06;80.75;102084.09;1831790;78;20961;-45
2022/12/03 17:38:59;;;;;;;13.90;7.08;;;;;;;-3.10;80.89;102080.75;1831698;78;21625;-39
2022/12/03 17:41:25;;;;;;;9.45;5.42;;;;;;;-3.13;80.95;102092.00;1831769;78;21094;-45
2022/12/03 17:43:52;;;;;;;11.45;5.83;;;;;;;-3.18;81.05;102100.61;1831408;78;21547;-39
2022/12/03 17:46:19;;;;;;;10.65;5.78;;;;;;;-3.22;81.13;102102.39;1831609;78;21015;-45
2022/12/03 17:48:45;;;;;;;9.63;5.95;;;;;;;-3.26;81.32;102102.50;1831682;78;21032;-43
2022/12/03 17:51:12;;;;;;;8.20;5.72;;;;;;;-3.28;81.39;102107.89;1831821;78;21031;-39
2022/12/03 17:53:39;;;;;;;11.40;6.55;;;;;;;-3.33;81.49;102106.60;1831729;78;20992;-38
2022/12/03 17:56:08;;;;;;;8.18;5.58;;;;;;;-3.35;81.61;102108.53;1831863;78;21541;-38
2022/12/03 17:58:35;;;;;;;9.80;5.60;;;;;;;-3.37;81.76;102110.05;1831680;78;21525;-39
2022/12/03 18:01:01;;;;;;;10.85;5.53;;;;;;;-3.40;81.88;102114.54;1831782;78;21047;-43
2022/12/03 18:03:28;;;;;;;11.78;6.08;;;;;;;-3.42;82.01;102113.88;1831567;78;21008;-45
2022/12/03 18:05:54;;;;;;;10.35;5.78;;;;;;;-3.46;82.18;102121.70;1831535;78;21680;-44
2022/12/03 18:08:21;;;;;;;11.88;5.60;;;;;;;-3.50;82.37;102115.41;1831872;78;21016;-38
2022/12/03 18:10:47;;;;;;;8.73;5.42;;;;;;;-3.53;82.51;102110.05;1831430;78;21047;-44
2022/12/03 18:13:15;;;;;;;9.45;5.15;;;;;;;-3.56;82.72;102109.77;1831822;78;20996;-39
2022/12/03 18:15:41;;;;;;;8.70;4.87;;;;;;;-3.59;82.90;102118.88;1831399;78;21090;-38
2022/12/03 18:18:08;;;;;;;9.63;6.20;;;;;;;-3.62;83.18;102122.05;1831870;78;21071;-44
2022/12/03 18:20:34;;;;;;;10.72;6.37;;;;;;;-3.63;83.44;102124.09;1831583;78;21102;-38
2022/12/03 18:23:01;;;;;;;11.22;6.10;;;;;;;-3.62;83.60;102127.16;1831628;78;21538;-43
2022/12/03 18:25:27;;;;;;;8.90;5.92;;;;;;;-3.62;83.70;102124.61;1831282;78;21095;-38
2022/12/03 18:27:54;;;;;;;11.68;6.42;;;;;;;-3.61;83.78;102125.11;1831373;78;21519;-44